createdAt,value
2018-12-30T11:09:34.583Z,102301.34
2018-12-30T11:17:12.006Z,102308.00
2018-12-30T11:22:14.755Z,102319.33
2018-12-30T11:27:17.404Z,102297.98
2018-12-30T11:32:20.491Z,102294.80
2018-12-30T11:37:23.522Z,102304.54
2018-12-30T11:42:26.206Z,102307.80
2018-12-30T11:47:28.805Z,102296.33
2018-12-30T11:52:31.699Z,102347.77
2018-12-30T11:57:34.671Z,102323.86
2018-12-30T12:02:37.533Z,102328.70
2018-12-30T12:07:40.221Z,102332.38
2018-12-30T12:12:48.826Z,102330.84
2018-12-30T12:17:47.005Z,102320.99
2018-12-30T12:22:49.967Z,102324.26
2018-12-30T12:27:52.998Z,102312.94
2018-12-30T12:32:55.956Z,102311.37
2018-12-30T12:37:58.847Z,102320.16
2018-12-30T12:43:01.135Z,102313.22
2018-12-30T12:48:04.147Z,102306.23
2018-12-30T12:53:06.919Z,102307.34
2018-12-30T12:58:09.831Z,102295.72
2018-12-30T13:03:12.334Z,102305.89
2018-12-30T13:08:14.412Z,102305.48
2018-12-30T13:13:17.407Z,102304.41
2018-12-30T13:18:20.189Z,102300.45
2018-12-30T13:23:22.927Z,102302.86
2018-12-30T13:28:25.416Z,102319.06
2018-12-30T13:33:28.483Z,102339.33
2018-12-30T13:38:31.432Z,102317.77
2018-12-30T13:43:33.813Z,102292.08
2018-12-30T13:48:36.624Z,102302.95
2018-12-30T13:53:39.619Z,102308.89
2018-12-30T13:58:42.330Z,102319.00
2018-12-30T14:03:45.134Z,102320.86
2018-12-30T14:08:47.857Z,102329.11
2018-12-30T14:13:50.622Z,102315.78
2018-12-30T14:18:52.719Z,102328.96
2018-12-30T14:23:55.863Z,102343.03
2018-12-30T14:28:58.716Z,102357.77
2018-12-30T14:34:01.828Z,102384.97
2018-12-30T14:39:06.510Z,102368.44
2018-12-30T14:44:08.957Z,102373.47
2018-12-30T14:49:11.657Z,102385.87
2018-12-30T14:54:14.828Z,102404.82
2018-12-30T14:59:17.927Z,102406.46
2018-12-30T15:04:22.376Z,102407.19
2018-12-30T15:09:25.328Z,102422.11
2018-12-30T15:14:27.700Z,102410.80
2018-12-30T15:19:30.823Z,102421.03
2018-12-30T15:24:33.987Z,102415.87
2018-12-30T15:29:36.935Z,102404.31
2018-12-30T15:34:39.713Z,102410.17
2018-12-30T15:39:42.746Z,102412.52
2018-12-30T15:44:44.901Z,102425.06
2018-12-30T15:49:47.916Z,102431.12
2018-12-30T15:55:22.808Z,102439.02
2018-12-30T16:00:52.969Z,102455.11
2018-12-30T16:06:07.069Z,102478.45
2018-12-30T16:11:10.107Z,102480.83
2018-12-30T16:16:13.075Z,102486.84
2018-12-30T16:21:15.952Z,102497.90
2018-12-30T16:26:19.070Z,102498.77
2018-12-30T16:31:28.084Z,102509.58
2018-12-30T16:36:26.326Z,102504.55
2018-12-30T16:41:29.034Z,102513.20
2018-12-30T16:46:32.031Z,102509.08
2018-12-30T16:51:34.733Z,102503.19
2018-12-30T16:56:37.680Z,102508.33
2018-12-30T17:01:40.407Z,102516.59
2018-12-30T17:06:43.177Z,102518.23
2018-12-30T17:11:45.833Z,102526.76
2018-12-30T17:16:48.849Z,102529.00
2018-12-30T17:21:51.150Z,102529.25
2018-12-30T17:26:54.448Z,102534.77
2018-12-30T17:31:57.518Z,102539.38
2018-12-30T17:37:00.231Z,102532.35
2018-12-30T17:42:02.907Z,102526.22
2018-12-30T17:47:05.873Z,102530.34
2018-12-30T17:52:08.860Z,102545.49
2018-12-30T17:57:11.747Z,102545.55
2018-12-30T18:02:16.359Z,102546.41
2018-12-30T18:07:20.963Z,102545.46
2018-12-30T18:12:24.935Z,102547.05
2018-12-30T18:17:29.000Z,102548.80
2018-12-30T18:22:34.056Z,102557.48
2018-12-30T18:27:38.370Z,102567.87
2018-12-30T18:32:41.199Z,102576.27
2018-12-30T18:37:43.390Z,102579.88
2018-12-30T18:42:45.791Z,102577.73
2018-12-30T18:47:48.430Z,102572.39
2018-12-30T18:52:51.527Z,102579.39
2018-12-30T18:57:54.693Z,102571.88
2018-12-30T19:02:57.415Z,102566.22
2018-12-30T19:07:59.808Z,102585.26
2018-12-30T19:13:02.489Z,102587.06
2018-12-30T19:18:07.211Z,102599.48
2018-12-30T19:23:09.720Z,102591.84
2018-12-30T19:28:13.853Z,102593.82
2018-12-30T19:33:16.763Z,102579.03
2018-12-30T19:38:19.179Z,102587.19
2018-12-30T19:43:22.271Z,102583.63
2018-12-30T19:48:24.759Z,102598.12
2018-12-30T19:53:27.956Z,102601.50
2018-12-30T19:58:31.179Z,102590.35
2018-12-30T20:03:34.586Z,102588.61
2018-12-30T20:08:37.292Z,102596.13
2018-12-30T20:13:40.184Z,102616.25
2018-12-30T20:18:42.885Z,102605.94
2018-12-30T20:23:46.421Z,102608.32
2018-12-30T20:28:50.194Z,102617.86
2018-12-30T20:33:53.467Z,102610.42
2018-12-30T20:38:56.502Z,102610.61
2018-12-30T20:43:59.947Z,102615.30
2018-12-30T20:49:03.246Z,102612.44
2018-12-30T20:54:06.480Z,102603.03
2018-12-30T20:59:09.864Z,102590.37
2018-12-30T21:04:13.043Z,102600.64
2018-12-30T21:09:17.228Z,102604.04
2018-12-30T21:14:20.734Z,102600.80
2018-12-30T21:19:23.463Z,102608.47
2018-12-30T21:24:27.927Z,102601.45
2018-12-30T21:29:30.686Z,102593.77
2018-12-30T21:34:33.183Z,102587.80
2018-12-30T21:39:35.992Z,102579.76
2018-12-30T21:44:38.530Z,102596.40
2018-12-30T21:49:41.893Z,102586.31
2018-12-30T21:54:44.540Z,102579.33
2018-12-30T21:59:47.190Z,102586.13
2018-12-30T22:04:50.170Z,102596.52
2018-12-30T22:09:52.866Z,102585.30
2018-12-30T22:14:55.699Z,102592.97
2018-12-30T22:19:57.467Z,102587.48
2018-12-30T22:25:00.577Z,102590.51
2018-12-30T22:30:04.470Z,102583.92
2018-12-30T22:35:07.624Z,102583.62
2018-12-30T22:40:10.579Z,102582.02
2018-12-30T22:45:13.621Z,102587.44
2018-12-30T22:50:16.094Z,102590.88
2018-12-30T22:55:19.127Z,102582.63
2018-12-30T23:00:38.919Z,102587.64
2018-12-30T23:05:41.872Z,102595.52
2018-12-30T23:10:46.261Z,102557.94
2018-12-30T23:15:49.141Z,102564.08
2018-12-30T23:20:52.147Z,102572.36
2018-12-30T23:25:55.167Z,102570.50
2018-12-30T23:30:57.563Z,102577.12
2018-12-30T23:36:00.045Z,102591.04
2018-12-30T23:41:02.435Z,102596.97
2018-12-30T23:46:05.225Z,102610.39
2018-12-30T23:51:08.046Z,102623.30
2018-12-30T23:56:11.147Z,102623.30
